Time;durP1;ratioP1;P1;durP2;ratioP2;P2;SDS_P1;SDS_P2;PMS_P1;PMS_P2;Temp;Humidity;BMP_temperature;BMP_pressure;BME280_temperature;BME280_humidity;BME280_pressure;Samples;Min_cycle;Max_cycle;Signal;HPM_P1;HPM_P2
2022/09/24 00:01:23;;;;;;;19.83;17.88;;;10.20;99.90;;;;;;4999146;28;20056;-74
2022/09/24 00:03:58;;;;;;;19.05;17.55;;;10.10;99.90;;;;;;5019423;28;20504;-73
2022/09/24 00:06:26;;;;;;;19.67;18.05;;;10.00;99.90;;;;;;5000465;28;20515;-73
2022/09/24 00:08:54;;;;;;;21.23;19.33;;;9.90;99.90;;;;;;5004510;28;20080;-73
2022/09/24 00:11:24;;;;;;;20.80;18.77;;;10.00;99.90;;;;;;5006702;28;20051;-73
2022/09/24 00:13:52;;;;;;;20.40;18.33;;;10.00;99.90;;;;;;5008121;28;20495;-73
2022/09/24 00:16:20;;;;;;;20.52;18.83;;;10.10;99.90;;;;;;5002233;28;20058;-72
2022/09/24 00:18:47;;;;;;;19.60;18.23;;;10.20;99.90;;;;;;5018688;28;20441;-73
2022/09/24 00:21:20;;;;;;;20.65;18.77;;;10.20;99.90;;;;;;5004737;28;20057;-73
2022/09/24 00:23:53;;;;;;;20.95;18.98;;;10.30;99.90;;;;;;5003514;28;20049;-72
2022/09/24 00:29:08;;;;;;;21.55;19.52;;;10.10;99.90;;;;;;5028214;28;20159;-73
2022/09/24 00:31:35;;;;;;;20.85;19.05;;;10.10;99.90;;;;;;4986956;28;20045;-74
2022/09/24 00:34:02;;;;;;;20.55;18.75;;;10.20;99.90;;;;;;5025724;28;20131;-73
2022/09/24 00:36:29;;;;;;;21.30;19.08;;;10.30;99.90;;;;;;5018988;28;20498;-72
2022/09/24 00:38:57;;;;;;;23.10;19.00;;;10.30;99.90;;;;;;5003654;28;20064;-73
2022/09/24 00:41:27;;;;;;;20.08;18.42;;;10.20;99.90;;;;;;5002763;28;20446;-73
2022/09/24 00:43:55;;;;;;;19.42;17.67;;;10.20;99.90;;;;;;5036510;23;20053;-80
2022/09/24 00:46:27;;;;;;;19.58;17.80;;;10.20;99.90;;;;;;4977229;28;20048;-78
2022/09/24 00:49:01;;;;;;;19.45;17.88;;;10.20;99.90;;;;;;4978915;28;20045;-78
2022/09/24 00:51:30;;;;;;;20.60;18.80;;;10.10;99.90;;;;;;4987277;28;20067;-78
2022/09/24 00:54:05;;;;;;;20.65;18.70;;;10.00;99.90;;;;;;4996091;28;20662;-78
2022/09/24 00:56:35;;;;;;;19.85;18.15;;;10.10;99.90;;;;;;4996241;28;20101;-78
2022/09/24 00:59:05;;;;;;;20.00;18.25;;;10.10;99.90;;;;;;5000926;28;20046;-78
2022/09/24 01:01:32;;;;;;;17.77;16.48;;;10.10;99.90;;;;;;5009057;28;20073;-78
2022/09/24 01:04:00;;;;;;;19.67;17.70;;;10.00;99.90;;;;;;4996366;28;20136;-78
2022/09/24 01:06:27;;;;;;;18.98;17.05;;;10.00;99.90;;;;;;4984275;28;20137;-78
2022/09/24 01:08:57;;;;;;;19.33;17.67;;;10.10;99.90;;;;;;4993650;28;20140;-80
2022/09/24 01:11:45;;;;;;;17.90;16.30;;;10.10;99.90;;;;;;4995861;28;20046;-80
2022/09/24 01:14:31;;;;;;;17.88;16.40;;;10.20;99.90;;;;;;4994641;28;20403;-80
2022/09/24 01:17:35;;;;;;;17.40;15.90;;;10.10;99.90;;;;;;5011759;28;20446;-80
2022/09/24 01:20:18;;;;;;;17.60;15.93;;;9.90;99.90;;;;;;4898287;28;20123;-80
2022/09/24 01:23:22;;;;;;;18.98;16.75;;;9.90;99.90;;;;;;5011489;28;20095;-80
2022/09/24 01:26:08;;;;;;;18.58;16.77;;;9.90;99.90;;;;;;4992822;28;20041;-80
2022/09/24 01:28:43;;;;;;;;;;;10.00;99.90;;;;;;4996825;28;20117;-81
2022/09/24 01:31:25;;;;;;;18.33;16.50;;;10.00;99.90;;;;;;5008992;28;20453;-78
2022/09/24 01:33:55;;;;;;;18.77;17.05;;;10.10;99.90;;;;;;4989941;28;20050;-79
2022/09/24 01:36:22;;;;;;;19.10;17.48;;;10.20;99.90;;;;;;4989370;28;20050;-79
2022/09/24 01:38:52;;;;;;;20.10;18.25;;;10.10;99.90;;;;;;4996627;28;20046;-79
2022/09/24 01:41:20;;;;;;;20.60;18.48;;;10.20;99.90;;;;;;5002289;28;20045;-79
2022/09/24 01:43:48;;;;;;;19.48;17.83;;;10.20;99.90;;;;;;4994737;28;20050;-78
2022/09/24 01:46:18;;;;;;;21.10;19.00;;;10.30;99.90;;;;;;4994778;28;20050;-78
2022/09/24 01:48:45;;;;;;;20.98;18.95;;;10.20;99.90;;;;;;4989201;28;20508;-78
2022/09/24 01:51:25;;;;;;;23.02;20.80;;;10.20;99.90;;;;;;5002439;28;20392;-78
2022/09/24 01:53:55;;;;;;;21.27;19.33;;;10.20;99.90;;;;;;4995772;28;20406;-79
2022/09/24 01:56:29;;;;;;;21.83;19.75;;;10.30;99.90;;;;;;4981015;28;20053;-79
2022/09/24 01:59:04;;;;;;;21.75;19.60;;;10.30;99.90;;;;;;4989102;28;20092;-78
2022/09/24 02:01:37;;;;;;;21.33;19.48;;;10.20;99.90;;;;;;5003894;28;20120;-78
2022/09/24 02:04:10;;;;;;;21.60;19.80;;;10.20;99.90;;;;;;5008503;28;20045;-78
2022/09/24 02:07:02;;;;;;;22.80;20.67;;;10.30;99.90;;;;;;4995558;28;20045;-79
2022/09/24 02:09:37;;;;;;;20.88;19.15;;;10.20;99.90;;;;;;5004230;28;20136;-78
2022/09/24 02:12:21;;;;;;;21.08;19.10;;;10.20;99.90;;;;;;4989065;28;20046;-78
2022/09/24 02:14:56;;;;;;;21.70;20.00;;;10.20;99.90;;;;;;4993039;28;20136;-78
2022/09/24 02:17:26;;;;;;;20.73;18.83;;;10.10;99.90;;;;;;4986522;28;20037;-78
2022/09/24 02:19:55;;;;;;;21.38;19.27;;;10.10;99.90;;;;;;4997687;28;20396;-78
2022/09/24 02:22:24;;;;;;;19.20;17.40;;;10.10;99.90;;;;;;4995336;28;20044;-78
2022/09/24 02:24:54;;;;;;;19.30;17.77;;;10.00;99.90;;;;;;4976861;28;20038;-78
2022/09/24 02:27:25;;;;;;;20.08;18.02;;;10.00;99.90;;;;;;5005510;28;20514;-78
2022/09/24 02:29:52;;;;;;;19.67;17.98;;;9.90;99.90;;;;;;4988042;28;20486;-78
2022/09/24 02:32:20;;;;;;;18.77;16.85;;;9.90;99.90;;;;;;4984335;28;20045;-80
2022/09/24 02:35:00;;;;;;;21.40;17.85;;;9.90;99.90;;;;;;4987114;28;20541;-80
2022/09/24 02:37:28;;;;;;;19.80;17.40;;;9.90;99.90;;;;;;4976225;28;20049;-78
2022/09/24 02:39:55;;;;;;;19.05;17.27;;;9.90;99.90;;;;;;5012051;28;20053;-78
2022/09/24 02:42:22;;;;;;;19.63;17.95;;;9.90;99.90;;;;;;4973952;28;20034;-78
2022/09/24 02:44:48;;;;;;;22.73;18.95;;;9.90;99.90;;;;;;4978561;28;20415;-78
2022/09/24 02:47:15;;;;;;;20.35;18.60;;;10.10;99.90;;;;;;5023639;28;20309;-78
2022/09/24 02:49:43;;;;;;;21.67;19.55;;;10.00;99.90;;;;;;4992274;28;20054;-78
2022/09/24 02:52:10;;;;;;;22.38;20.38;;;10.00;99.90;;;;;;4998798;28;20045;-78
2022/09/24 02:54:37;;;;;;;20.35;18.38;;;10.00;99.90;;;;;;4996209;28;20495;-78
2022/09/24 02:57:04;;;;;;;21.92;19.83;;;9.90;99.90;;;;;;5010723;28;20041;-78
2022/09/24 02:59:31;;;;;;;20.85;19.30;;;9.90;99.90;;;;;;4995342;28;20487;-81
2022/09/24 03:01:58;;;;;;;21.50;19.75;;;10.00;99.90;;;;;;4967804;28;20144;-81
2022/09/24 03:04:25;;;;;;;22.15;19.90;;;10.10;99.90;;;;;;4990173;28;20034;-80
2022/09/24 03:06:52;;;;;;;22.50;20.35;;;10.10;99.90;;;;;;4988959;28;20049;-80
2022/09/24 03:09:18;;;;;;;22.55;20.70;;;10.10;99.90;;;;;;4997888;28;20044;-81
2022/09/24 03:11:46;;;;;;;22.08;20.33;;;10.10;99.90;;;;;;4990531;28;20140;-80
2022/09/24 03:14:12;;;;;;;21.70;19.88;;;10.00;99.90;;;;;;4994254;28;20446;-81
2022/09/24 03:16:40;;;;;;;21.80;19.88;;;9.80;99.90;;;;;;4994871;28;20042;-80
2022/09/24 03:19:07;;;;;;;22.27;20.35;;;9.90;99.90;;;;;;4991293;28;20519;-80
2022/09/24 03:21:34;;;;;;;21.50;19.65;;;9.90;99.90;;;;;;5006904;28;20133;-81
2022/09/24 03:24:02;;;;;;;23.17;20.95;;;10.00;99.90;;;;;;4978401;28;20042;-81
2022/09/24 03:26:29;;;;;;;22.30;20.13;;;10.10;99.90;;;;;;5007485;28;20595;-80
2022/09/24 03:28:55;;;;;;;21.85;19.92;;;10.20;99.90;;;;;;4995709;28;20050;-81
2022/09/24 03:31:23;;;;;;;21.58;19.77;;;10.20;99.90;;;;;;4986157;28;20055;-80
2022/09/24 03:33:49;;;;;;;23.17;20.92;;;10.20;99.90;;;;;;4987046;28;20053;-79
2022/09/24 03:36:19;;;;;;;21.50;19.70;;;10.10;99.90;;;;;;4997951;28;20037;-80
2022/09/24 03:38:48;;;;;;;22.25;20.02;;;10.10;99.90;;;;;;4978924;28;20054;-80
2022/09/24 03:41:16;;;;;;;22.52;19.63;;;10.00;99.90;;;;;;4973762;28;20235;-80
2022/09/24 03:43:43;;;;;;;20.83;19.15;;;10.10;99.90;;;;;;4996484;28;20053;-80
2022/09/24 03:46:11;;;;;;;20.08;18.38;;;10.00;99.90;;;;;;4991897;28;20363;-80
2022/09/24 03:48:39;;;;;;;20.73;18.95;;;9.90;99.90;;;;;;4986460;28;20050;-82
2022/09/24 03:51:11;;;;;;;18.17;16.45;;;9.80;99.90;;;;;;4996388;28;20041;-81
2022/09/24 03:53:38;;;;;;;17.35;15.75;;;9.60;99.90;;;;;;4989359;28;20050;-81
2022/09/24 03:56:06;;;;;;;16.80;15.15;;;9.60;99.90;;;;;;4993313;28;20106;-81
2022/09/24 03:58:36;;;;;;;17.13;15.35;;;9.60;99.90;;;;;;4970569;28;20064;-80
2022/09/24 04:01:07;;;;;;;17.70;16.00;;;9.60;99.90;;;;;;4990152;28;20054;-79
2022/09/24 04:03:35;;;;;;;17.55;15.90;;;9.60;99.90;;;;;;4989703;28;20046;-80
2022/09/24 04:06:03;;;;;;;18.15;16.52;;;9.50;99.90;;;;;;4988036;28;20141;-80
2022/09/24 04:08:30;;;;;;;18.60;16.70;;;9.60;99.90;;;;;;4994434;28;20691;-80
2022/09/24 04:10:57;;;;;;;20.00;17.98;;;9.70;99.90;;;;;;5012515;28;20041;-80
2022/09/24 04:13:24;;;;;;;21.48;18.48;;;9.80;99.90;;;;;;5007571;28;20049;-81
2022/09/24 04:15:53;;;;;;;20.40;18.48;;;9.80;99.90;;;;;;4993407;28;20141;-79
2022/09/24 04:18:20;;;;;;;19.27;17.77;;;9.80;99.90;;;;;;5001001;28;20072;-81
2022/09/24 04:20:47;;;;;;;19.50;17.90;;;9.80;99.90;;;;;;4998861;28;20026;-80
2022/09/24 04:23:14;;;;;;;19.75;17.95;;;9.80;99.90;;;;;;4991341;28;20054;-81
2022/09/24 04:25:41;;;;;;;19.83;17.98;;;9.80;99.90;;;;;;4990526;28;20501;-83
2022/09/24 04:28:08;;;;;;;19.10;17.38;;;9.80;99.90;;;;;;5013923;28;20042;-82
2022/09/24 04:30:36;;;;;;;19.38;17.67;;;9.90;99.90;;;;;;4991016;28;20579;-80
2022/09/24 04:33:04;;;;;;;20.23;18.52;;;9.80;99.90;;;;;;4989241;28;20072;-80
2022/09/24 04:35:34;;;;;;;18.35;16.75;;;9.80;99.90;;;;;;4988885;28;20042;-80
2022/09/24 04:38:01;;;;;;;18.75;16.95;;;9.80;99.90;;;;;;4992673;28;20049;-79
2022/09/24 04:40:28;;;;;;;19.65;17.55;;;9.90;99.90;;;;;;4988488;28;20049;-80
2022/09/24 04:42:56;;;;;;;19.02;17.20;;;9.70;99.90;;;;;;4996081;28;20041;-81
2022/09/24 04:45:23;;;;;;;19.83;17.83;;;9.80;99.90;;;;;;4991228;28;20048;-79
2022/09/24 04:47:57;;;;;;;19.42;17.35;;;9.80;99.90;;;;;;4984250;28;20073;-80
2022/09/24 04:50:26;;;;;;;18.90;17.08;;;9.80;99.90;;;;;;4982842;28;20129;-82
2022/09/24 04:52:53;;;;;;;19.30;16.15;;;9.90;99.90;;;;;;4973683;28;20100;-80
2022/09/24 04:55:22;;;;;;;17.20;15.57;;;9.70;99.90;;;;;;5008337;28;20128;-80
2022/09/24 04:57:49;;;;;;;18.60;16.60;;;9.70;99.90;;;;;;4980548;28;20093;-79
2022/09/24 05:00:19;;;;;;;17.63;15.88;;;9.70;99.90;;;;;;4970939;28;20059;-83
2022/09/24 05:02:46;;;;;;;20.33;16.58;;;9.80;99.90;;;;;;5003612;28;20050;-82
2022/09/24 05:05:13;;;;;;;18.67;16.60;;;9.80;99.90;;;;;;4998208;28;20065;-81
2022/09/24 05:07:41;;;;;;;18.25;16.55;;;9.80;99.90;;;;;;4994629;28;20063;-82
2022/09/24 05:10:08;;;;;;;20.17;18.15;;;9.90;99.90;;;;;;4991023;28;20054;-81
2022/09/24 05:12:35;;;;;;;19.48;17.88;;;9.90;99.90;;;;;;5008427;28;20057;-80
2022/09/24 05:15:03;;;;;;;19.95;18.08;;;9.90;99.90;;;;;;4990946;28;20069;-78
2022/09/24 05:17:29;;;;;;;24.02;21.65;;;9.80;99.90;;;;;;4994707;28;20140;-79
2022/09/24 05:19:58;;;;;;;25.70;23.42;;;9.80;99.90;;;;;;4991299;28;20038;-82
2022/09/24 05:22:26;;;;;;;22.73;20.42;;;9.70;99.90;;;;;;4987507;28;20042;-84
2022/09/24 05:24:53;;;;;;;20.60;19.00;;;9.80;99.90;;;;;;4996395;28;20590;-82
2022/09/24 05:27:22;;;;;;;22.85;20.55;;;9.90;99.90;;;;;;4977805;28;20117;-84
2022/09/24 05:29:49;;;;;;;22.45;20.52;;;9.90;99.90;;;;;;5012050;28;20049;-80
2022/09/24 05:32:18;;;;;;;22.25;19.92;;;10.00;99.90;;;;;;4976162;28;20133;-83
2022/09/24 05:34:46;;;;;;;22.17;20.15;;;9.90;99.90;;;;;;5000530;28;20553;-85
2022/09/24 05:37:13;;;;;;;21.17;19.10;;;10.00;99.90;;;;;;5001247;28;20125;-83
2022/09/24 05:39:43;;;;;;;21.98;20.05;;;10.00;99.90;;;;;;4992537;28;20124;-84
2022/09/24 05:42:13;;;;;;;21.48;19.75;;;10.10;99.90;;;;;;4989803;28;20130;-85
2022/09/24 05:44:44;;;;;;;24.30;22.02;;;10.00;99.90;;;;;;4975479;28;20070;-81
2022/09/24 05:47:17;;;;;;;25.52;23.20;;;10.10;99.90;;;;;;5005932;28;20050;-83
2022/09/24 05:49:44;;;;;;;24.67;22.10;;;10.20;99.90;;;;;;4988956;28;20119;-84
2022/09/24 05:52:11;;;;;;;23.95;21.20;;;10.20;99.90;;;;;;4996809;28;20267;-82
2022/09/24 05:54:37;;;;;;;22.92;20.83;;;10.00;99.90;;;;;;4980081;28;20361;-80
2022/09/24 05:57:04;;;;;;;29.92;22.80;;;10.00;99.90;;;;;;4977377;28;20065;-84
2022/09/24 05:59:31;;;;;;;37.80;30.98;;;10.10;99.90;;;;;;5003334;28;20137;-83
2022/09/24 06:01:57;;;;;;;25.27;22.63;;;10.20;99.90;;;;;;4990417;28;20044;-81
2022/09/24 06:04:25;;;;;;;26.38;20.42;;;10.30;99.90;;;;;;4978280;28;20438;-83
2022/09/24 06:06:52;;;;;;;21.55;19.40;;;10.30;99.90;;;;;;5000497;28;20586;-81
2022/09/24 06:09:19;;;;;;;23.40;21.15;;;10.30;99.90;;;;;;4989758;28;20144;-83
2022/09/24 06:11:47;;;;;;;29.15;21.48;;;10.20;99.90;;;;;;4994228;28;20053;-82
2022/09/24 06:14:14;;;;;;;25.25;20.77;;;10.20;99.90;;;;;;4975781;28;20053;-85
2022/09/24 06:16:41;;;;;;;24.83;22.08;;;10.30;99.90;;;;;;5009739;28;20133;-84
2022/09/24 06:19:08;;;;;;;24.13;21.70;;;10.40;99.90;;;;;;5009238;28;20065;-82
2022/09/24 06:21:34;;;;;;;24.13;21.67;;;10.40;99.90;;;;;;4999392;28;20096;-86
2022/09/24 06:24:01;;;;;;;23.75;21.52;;;10.60;99.90;;;;;;4975800;28;20038;-81
2022/09/24 06:26:28;;;;;;;46.47;24.48;;;10.70;99.90;;;;;;4988258;28;20050;-81
2022/09/24 06:28:57;;;;;;;21.75;19.50;;;10.60;99.90;;;;;;4981077;28;20053;-81
2022/09/24 06:31:30;;;;;;;22.10;20.05;;;10.80;99.90;;;;;;5008850;28;20414;-82
2022/09/24 06:33:57;;;;;;;21.85;19.85;;;10.70;99.90;;;;;;4973626;28;20042;-81
2022/09/24 06:36:24;;;;;;;23.20;20.35;;;10.70;99.90;;;;;;4990516;28;20049;-84
2022/09/24 06:38:51;;;;;;;21.17;19.25;;;10.70;99.90;;;;;;4985102;28;20052;-82
2022/09/24 06:41:18;;;;;;;24.95;22.35;;;10.70;99.90;;;;;;4978800;28;20538;-87
2022/09/24 06:43:45;;;;;;;23.15;20.95;;;10.70;99.90;;;;;;4989119;28;20088;-85
2022/09/24 06:46:13;;;;;;;22.85;20.77;;;10.60;99.90;;;;;;5002213;28;20038;-82
2022/09/24 06:48:40;;;;;;;40.80;22.10;;;10.70;99.90;;;;;;4996268;28;20049;-82
2022/09/24 06:51:07;;;;;;;58.35;25.48;;;10.80;99.90;;;;;;4994474;28;20033;-84
2022/09/24 06:53:33;;;;;;;21.25;19.30;;;10.90;99.90;;;;;;4979399;28;20046;-82
2022/09/24 06:56:02;;;;;;;23.27;20.95;;;11.00;99.90;;;;;;5009299;28;20054;-81
2022/09/24 06:58:29;;;;;;;21.48;19.77;;;11.20;99.90;;;;;;4998210;28;20045;-82
2022/09/24 07:00:58;;;;;;;23.85;21.83;;;11.20;99.90;;;;;;4993400;28;20029;-82
2022/09/24 07:03:27;;;;;;;26.00;23.52;;;11.20;99.90;;;;;;4992938;28;20140;-82
2022/09/24 07:05:54;;;;;;;26.27;23.45;;;11.20;99.90;;;;;;4988703;28;20526;-82
2022/09/24 07:08:21;;;;;;;24.65;22.45;;;11.30;99.90;;;;;;4976919;28;20049;-81
2022/09/24 07:10:48;;;;;;;24.58;22.48;;;11.30;99.90;;;;;;5008646;28;20050;-83
2022/09/24 07:13:15;;;;;;;26.33;24.02;;;11.40;99.90;;;;;;5003770;28;20056;-81
2022/09/24 07:15:43;;;;;;;25.52;23.08;;;11.50;99.90;;;;;;4987799;28;20045;-82
2022/09/24 07:18:11;;;;;;;28.70;25.85;;;11.60;99.90;;;;;;4972201;28;20038;-81
2022/09/24 07:20:39;;;;;;;26.55;24.25;;;11.80;99.90;;;;;;4992616;28;20046;-84
2022/09/24 07:23:07;;;;;;;30.13;27.60;;;11.70;99.90;;;;;;4992754;28;20717;-83
2022/09/24 07:25:35;;;;;;;29.48;26.85;;;11.80;99.90;;;;;;4993838;28;20042;-82
2022/09/24 07:28:08;;;;;;;25.58;23.20;;;11.90;99.90;;;;;;4991129;28;20249;-81
2022/09/24 07:30:36;;;;;;;27.08;24.33;;;12.10;99.90;;;;;;4997259;28;20166;-84
2022/09/24 07:33:03;;;;;;;28.10;25.20;;;12.10;99.90;;;;;;4990818;28;20045;-82
2022/09/24 07:35:30;;;;;;;26.08;23.48;;;12.10;99.90;;;;;;4996349;28;20098;-84
2022/09/24 07:38:00;;;;;;;27.42;24.52;;;12.10;99.90;;;;;;4995568;28;20040;-81
2022/09/24 07:40:28;;;;;;;26.85;24.35;;;12.10;99.90;;;;;;4991863;28;20069;-81
2022/09/24 07:42:55;;;;;;;28.20;25.73;;;12.10;99.90;;;;;;4974293;28;20065;-82
2022/09/24 07:45:26;;;;;;;33.50;30.17;;;12.00;99.90;;;;;;5000574;28;20049;-81
2022/09/24 07:48:00;;;;;;;33.60;30.13;;;12.00;99.90;;;;;;4991898;28;20621;-81
2022/09/24 07:50:29;;;;;;;37.95;33.97;;;12.00;99.90;;;;;;4975620;28;20631;-82
2022/09/24 07:52:56;;;;;;;36.25;33.00;;;12.10;99.90;;;;;;4993867;28;20053;-81
2022/09/24 07:55:23;;;;;;;41.53;37.60;;;12.10;99.90;;;;;;5001872;28;20064;-80
2022/09/24 07:57:52;;;;;;;41.58;37.25;;;12.10;99.90;;;;;;4984698;28;20038;-84
2022/09/24 08:00:20;;;;;;;39.75;35.78;;;12.10;99.90;;;;;;5001780;28;20041;-83
2022/09/24 08:02:50;;;;;;;44.95;40.25;;;12.00;99.90;;;;;;4990301;28;20136;-82
2022/09/24 08:05:17;;;;;;;43.03;38.92;;;12.00;99.90;;;;;;4995602;28;20168;-83
2022/09/24 08:07:55;;;;;;;44.45;40.05;;;12.00;99.90;;;;;;4986240;28;20750;-81
2022/09/24 08:10:22;;;;;;;46.80;40.28;;;12.00;99.90;;;;;;5019577;28;20052;-81
2022/09/24 08:12:49;;;;;;;46.88;41.83;;;12.00;99.90;;;;;;4974247;28;20046;-82
2022/09/24 08:15:17;;;;;;;52.92;42.45;;;12.00;99.90;;;;;;4999781;28;20145;-84
2022/09/24 08:17:44;;;;;;;46.95;42.03;;;12.00;99.90;;;;;;4976226;28;20058;-82
2022/09/24 08:20:11;;;;;;;47.33;41.47;;;11.90;99.90;;;;;;5010447;28;20046;-81
2022/09/24 08:22:37;;;;;;;54.45;46.08;;;11.90;99.90;;;;;;4992040;28;20060;-81
2022/09/24 08:25:04;;;;;;;52.60;43.97;;;11.80;99.90;;;;;;4974334;28;20487;-82
2022/09/24 08:27:31;;;;;;;45.92;40.13;;;11.80;99.90;;;;;;4993555;28;20058;-82
2022/09/24 08:29:59;;;;;;;62.53;44.70;;;11.90;99.90;;;;;;5004216;28;20068;-82
2022/09/24 08:32:28;;;;;;;47.13;42.10;;;12.10;99.90;;;;;;5003144;28;20076;-81
2022/09/24 08:34:54;;;;;;;62.08;46.83;;;12.30;99.90;;;;;;4992261;28;20080;-81
2022/09/24 08:37:21;;;;;;;62.53;49.45;;;12.40;99.90;;;;;;5003472;28;20049;-81
2022/09/24 08:39:47;;;;;;;56.88;49.38;;;12.40;99.90;;;;;;4983575;28;20052;-82
2022/09/24 08:42:29;;;;;;;62.70;53.42;;;12.40;99.90;;;;;;5011772;28;20045;-80
2022/09/24 08:47:51;;;;;;;61.72;51.85;;;12.50;99.90;;;;;;4994115;28;20058;-81
2022/09/24 08:50:30;;;;;;;65.13;51.97;;;12.60;99.90;;;;;;4993653;28;20067;-82
2022/09/24 08:53:17;;;;;;;66.00;58.65;;;12.70;99.90;;;;;;5010154;28;20591;-81
2022/09/24 08:55:47;;;;;;;58.08;51.95;;;12.80;99.90;;;;;;4994072;28;20121;-81
2022/09/24 08:58:16;;;;;;;56.28;47.45;;;12.90;99.90;;;;;;5009515;28;20062;-84
2022/09/24 09:01:04;;;;;;;59.25;49.58;;;12.80;99.90;;;;;;4969979;28;20054;-82
2022/09/24 09:03:49;;;;;;;57.15;51.00;;;12.90;99.90;;;;;;4980303;28;20141;-81
2022/09/24 09:06:52;;;;;;;111.63;97.68;;;12.90;99.90;;;;;;5002788;28;20041;-81
2022/09/24 09:09:31;;;;;;;66.25;55.47;;;12.70;99.90;;;;;;5000605;28;20112;-82
2022/09/24 09:12:05;;;;;;;63.35;54.45;;;12.80;99.90;;;;;;4993026;28;20538;-81
2022/09/24 09:15:11;;;;;;;64.97;56.55;;;13.00;99.90;;;;;;4996806;28;20462;-80
2022/09/24 09:17:46;;;;;;;66.57;56.20;;;13.20;99.90;;;;;;4994134;28;20046;-83
2022/09/24 09:20:44;;;;;;;76.55;61.35;;;13.40;99.90;;;;;;5011468;28;20041;-81
2022/09/24 09:23:17;;;;;;;74.57;61.28;;;13.50;99.90;;;;;;5007183;28;20168;-81
2022/09/24 09:26:07;;;;;;;62.72;55.38;;;13.40;99.90;;;;;;4998748;28;20057;-83
2022/09/24 09:28:34;;;;;;;74.45;60.72;;;13.50;99.90;;;;;;5000146;28;20064;-82
2022/09/24 09:31:10;;;;;;;68.50;55.85;;;13.70;99.90;;;;;;5005288;28;20052;-81
2022/09/24 09:33:42;;;;;;;73.57;58.25;;;13.80;99.90;;;;;;4994300;28;20519;-81
2022/09/24 09:36:33;;;;;;;63.65;54.92;;;13.90;99.90;;;;;;4992374;28;20042;-81
2022/09/24 09:39:27;;;;;;;62.88;55.83;;;14.00;99.90;;;;;;4998399;28;20046;-81
2022/09/24 09:42:08;;;;;;;62.83;54.65;;;14.20;99.90;;;;;;4983096;28;20117;-84
2022/09/24 09:44:40;;;;;;;62.35;52.78;;;14.20;99.90;;;;;;5006715;28;20129;-82
2022/09/24 09:47:15;;;;;;;58.08;50.95;;;14.20;99.90;;;;;;4993811;28;20652;-81
2022/09/24 09:49:44;;;;;;;64.15;51.35;;;14.40;99.90;;;;;;4994040;28;20050;-83
2022/09/24 09:52:18;;;;;;;57.90;47.90;;;14.60;99.90;;;;;;5008147;28;20056;-82
2022/09/24 09:54:45;;;;;;;52.17;45.90;;;14.80;99.90;;;;;;4995936;28;20068;-81
2022/09/24 09:57:24;;;;;;;41.08;37.08;;;14.90;99.90;;;;;;5000964;28;20041;-81
2022/09/24 09:59:53;;;;;;;42.00;37.72;;;15.10;99.90;;;;;;4984073;28;20048;-83
2022/09/24 10:02:32;;;;;;;44.55;40.05;;;15.20;99.90;;;;;;4984755;28;20496;-81
2022/09/24 10:05:05;;;;;;;56.55;50.67;;;15.50;99.90;;;;;;4985527;28;20417;-81
2022/09/24 10:07:42;;;;;;;46.05;41.53;;;15.70;99.90;;;;;;5000620;28;20076;-81
2022/09/24 10:10:19;;;;;;;43.67;39.20;;;15.80;99.90;;;;;;4988010;28;20444;-82
2022/09/24 10:12:46;;;;;;;44.20;39.92;;;16.10;99.90;;;;;;5026863;28;20140;-81
2022/09/24 10:15:20;;;;;;;43.22;39.20;;;16.20;99.90;;;;;;4991594;28;20469;-83
2022/09/24 10:17:53;;;;;;;38.25;34.60;;;16.40;99.90;;;;;;4993018;28;20081;-82
2022/09/24 10:20:27;;;;;;;34.78;31.85;;;16.30;99.90;;;;;;4994098;28;20076;-81
2022/09/24 10:23:05;;;;;;;35.50;32.60;;;16.30;99.90;;;;;;5013256;28;20076;-83
2022/09/24 10:25:35;;;;;;;31.52;29.15;;;16.30;99.90;;;;;;5012935;28;20225;-81
2022/09/24 10:30:59;;;;;;;31.33;28.92;;;16.30;99.90;;;;;;4991267;28;20052;-82
2022/09/24 10:33:34;;;;;;;35.20;32.42;;;16.10;99.90;;;;;;5007078;28;20057;-81
2022/09/24 10:36:07;;;;;;;33.90;31.02;;;15.90;99.90;;;;;;5003684;28;20042;-83
2022/09/24 10:38:34;;;;;;;32.47;29.88;;;15.80;99.90;;;;;;4998034;28;20454;-83
2022/09/24 10:41:00;;;;;;;31.33;28.70;;;15.50;99.90;;;;;;4990606;28;20040;-82
2022/09/24 10:43:27;;;;;;;28.83;26.73;;;15.50;99.90;;;;;;4985900;28;20104;-83
2022/09/24 10:46:35;;;;;;;29.85;27.55;;;15.70;99.90;;;;;;4990903;28;20034;-83
2022/09/24 10:49:18;;;;;;;31.80;29.45;;;15.80;99.90;;;;;;5011264;28;20351;-82
2022/09/24 10:52:02;;;;;;;31.98;29.52;;;15.90;99.90;;;;;;4972397;28;20046;-83
2022/09/24 10:55:05;;;;;;;34.08;31.08;;;15.90;99.90;;;;;;4993370;28;20335;-83
2022/09/24 10:58:05;;;;;;;34.13;31.42;;;16.00;99.90;;;;;;5006448;28;20045;-81
2022/09/24 11:00:38;;;;;;;34.58;31.88;;;16.10;99.90;;;;;;4990770;28;20474;-83
2022/09/24 11:03:28;;;;;;;33.60;30.80;;;16.10;99.90;;;;;;4999047;28;20257;-83
2022/09/24 11:06:10;;;;;;;34.78;32.13;;;16.00;99.90;;;;;;5003904;28;20065;-84
2022/09/24 11:09:02;;;;;;;36.13;33.13;;;15.90;99.90;;;;;;4988062;28;20058;-82
2022/09/24 11:12:13;;;;;;;36.38;33.47;;;15.80;99.90;;;;;;5015584;28;20074;-84
2022/09/24 11:15:33;;;;;;;35.42;32.63;;;15.80;99.90;;;;;;4987597;28;20053;-81
2022/09/24 11:18:33;;;;;;;42.30;38.72;;;15.90;99.90;;;;;;5008967;28;20506;-81
2022/09/24 11:21:28;;;;;;;35.50;32.70;;;15.80;99.90;;;;;;4992057;28;20068;-82
2022/09/24 11:24:09;;;;;;;35.08;32.35;;;15.90;99.90;;;;;;5016279;28;20124;-83
2022/09/24 11:27:26;;;;;;;36.30;33.28;;;16.00;99.90;;;;;;4987514;28;20037;-83
2022/09/24 11:29:55;;;;;;;;;;;16.00;99.90;;;;;;4913695;29;20113;-79
2022/09/24 11:32:32;;;;;;;36.25;33.10;;;15.90;99.90;;;;;;4990816;28;19921;-79
2022/09/24 11:35:14;;;;;;;38.25;35.05;;;15.90;99.90;;;;;;4978477;28;20049;-79
2022/09/24 11:37:49;;;;;;;35.80;32.95;;;15.90;99.90;;;;;;5002216;28;20050;-81
2022/09/24 11:40:51;;;;;;;37.13;34.20;;;15.90;99.90;;;;;;5010183;28;20069;-82
2022/09/24 11:43:47;;;;;;;34.15;31.25;;;16.00;99.90;;;;;;5003089;28;20483;-81
2022/09/24 11:46:46;;;;;;;35.90;32.90;;;16.00;99.90;;;;;;5010869;28;20074;-80
2022/09/24 11:49:25;;;;;;;35.67;32.72;;;15.80;99.90;;;;;;5014103;28;20449;-79
2022/09/24 11:52:13;;;;;;;35.63;32.67;;;15.70;99.90;;;;;;4986047;28;20053;-81
2022/09/24 11:55:18;;;;;;;35.47;32.22;;;15.60;99.90;;;;;;5006521;28;20042;-81
2022/09/24 11:57:56;;;;;;;35.17;32.35;;;15.70;99.90;;;;;;4975902;28;20057;-80
2022/09/24 12:00:27;;;;;;;36.03;32.90;;;15.70;99.90;;;;;;4969414;28;20046;-82
2022/09/24 12:03:19;;;;;;;35.60;32.80;;;15.80;99.90;;;;;;4986391;28;20158;-81
2022/09/24 12:06:26;;;;;;;33.72;30.83;;;15.90;99.90;;;;;;4983945;28;20099;-79
2022/09/24 12:09:02;;;;;;;33.35;30.50;;;15.90;99.90;;;;;;4991082;28;20053;-80
2022/09/24 12:11:38;;;;;;;34.42;31.63;;;16.00;99.90;;;;;;4968817;28;20064;-81
2022/09/24 12:14:13;;;;;;;34.80;31.70;;;16.10;99.90;;;;;;4987113;28;20855;-80
2022/09/24 12:16:43;;;;;;;34.58;31.70;;;16.00;99.90;;;;;;4999669;28;20665;-79
2022/09/24 12:19:22;;;;;;;34.30;31.77;;;16.20;99.90;;;;;;4997211;28;20480;-80
2022/09/24 12:21:51;;;;;;;33.60;30.90;;;16.10;99.90;;;;;;4977843;28;20121;-80
2022/09/24 12:24:35;;;;;;;37.20;34.22;;;16.00;99.90;;;;;;5009286;28;20132;-80
2022/09/24 12:27:11;;;;;;;34.47;31.52;;;16.00;99.90;;;;;;4993656;28;20041;-80
2022/09/24 12:32:55;;;;;;;33.30;30.52;;;15.80;99.90;;;;;;4984547;28;20125;-82
2022/09/24 12:35:27;;;;;;;33.45;30.75;;;15.80;99.90;;;;;;5003647;28;20133;-81
2022/09/24 12:38:08;;;;;;;34.38;31.38;;;15.80;99.90;;;;;;4993200;28;20042;-82
2022/09/24 12:41:04;;;;;;;34.20;31.33;;;15.80;99.90;;;;;;4994673;28;20052;-80
2022/09/24 12:43:53;;;;;;;33.95;31.25;;;15.80;99.90;;;;;;4998777;28;20042;-81
2022/09/24 12:46:38;;;;;;;35.95;32.88;;;15.60;99.90;;;;;;4991240;28;20052;-83
2022/09/24 12:49:18;;;;;;;35.95;32.85;;;15.50;99.90;;;;;;5023813;28;20042;-82
2022/09/24 12:51:45;;;;;;;38.15;34.78;;;15.50;99.90;;;;;;5001878;28;20111;-82
2022/09/24 12:54:29;;;;;;;35.72;32.58;;;15.60;99.90;;;;;;4992638;28;20126;-84
2022/09/24 12:57:11;;;;;;;39.75;36.08;;;15.90;99.90;;;;;;5003852;28;20042;-82
2022/09/24 13:00:25;;;;;;;41.22;37.53;;;16.00;99.90;;;;;;5021097;28;20030;-80
2022/09/24 13:02:53;;;;;;;42.88;39.00;;;16.00;99.90;;;;;;4989396;28;20144;-80
2022/09/24 13:05:26;;;;;;;42.85;39.15;;;15.90;99.90;;;;;;4993142;28;20319;-80
2022/09/24 13:08:18;;;;;;;44.10;40.08;;;15.90;99.90;;;;;;4992424;28;20427;-80
2022/09/24 13:10:58;;;;;;;43.03;39.42;;;15.90;99.90;;;;;;4970931;28;20132;-82
2022/09/24 13:13:28;;;;;;;42.78;38.88;;;15.90;99.90;;;;;;4972300;28;20046;-80